Terminal Aerodrome Forecast
Issued by NWS Mt. Holly, NJ

Home | Current Version | Previous Version | Text Only | Print | Product List | Glossary On
Versions: 1 2 3 4 5 6 7 8 9 10 11 12 13 14 15
913
FTUS41 KPHI 111130
TAFTTN
TAF
KTTN 111130Z 1112/1212 VRB02KT P6SM OVC100
     FM111500 20007KT P6SM OVC060
      TEMPO 1119/1122 6SM -SN BR SCT025 OVC040
     FM112300 18005KT P6SM SCT025 OVC060
     FM120500 16005KT 5SM -RASNPL BR SCT007 OVC015
     FM120600 16003KT 2SM -FZRAPL BR OVC007
     FM120800 20003KT 2SM RA BR OVC005=

USA.gov is the U.S. government's official web portal to all federal, state and local government web resources and services.